createdAt,value
2023-03-20T00:02:11.818Z,4.06
2023-03-20T00:04:42.101Z,4.06
2023-03-20T00:07:12.781Z,4.09
2023-03-20T00:09:48.772Z,4.12
2023-03-20T00:12:19.135Z,4.10
2023-03-20T00:14:48.347Z,4.08
2023-03-20T00:17:20.579Z,4.04
2023-03-20T00:19:56.613Z,4.02
2023-03-20T00:22:25.017Z,4.01
2023-03-20T00:24:54.549Z,4.00
2023-03-20T00:27:40.078Z,4.00
2023-03-20T00:30:17.330Z,3.98
2023-03-20T00:32:46.231Z,4.00
2023-03-20T00:35:18.691Z,3.99
2023-03-20T00:37:48.269Z,3.96
2023-03-20T00:40:20.379Z,3.93
2023-03-20T00:42:54.245Z,3.91
2023-03-20T00:45:22.571Z,3.92
2023-03-20T00:47:51.693Z,3.97
2023-03-20T00:50:23.881Z,4.02
2023-03-20T00:52:52.362Z,4.06
2023-03-20T00:55:21.123Z,4.12
2023-03-20T00:57:52.861Z,4.19
2023-03-20T01:00:26.566Z,4.21
2023-03-20T01:02:56.053Z,4.22
2023-03-20T01:05:26.395Z,4.22
2023-03-20T01:07:56.592Z,4.20
2023-03-20T01:10:26.475Z,4.12
2023-03-20T01:12:54.727Z,4.05
2023-03-20T01:15:32.091Z,4.02
2023-03-20T01:18:00.511Z,4.00
2023-03-20T01:20:32.663Z,3.99
2023-03-20T01:23:01.231Z,3.97
2023-03-20T01:25:30.090Z,3.95
2023-03-20T01:27:59.639Z,3.94
2023-03-20T01:30:29.002Z,3.95
2023-03-20T01:32:58.326Z,3.97
2023-03-20T01:35:27.908Z,4.03
2023-03-20T01:37:56.696Z,4.08
2023-03-20T01:40:33.207Z,4.13
2023-03-20T01:43:03.193Z,4.14
2023-03-20T01:45:36.400Z,4.09
2023-03-20T01:48:17.279Z,4.03
2023-03-20T01:50:48.875Z,3.97
2023-03-20T01:53:18.805Z,3.97
2023-03-20T01:55:51.969Z,3.96
2023-03-20T01:58:22.146Z,3.94
2023-03-20T02:00:50.962Z,3.94
2023-03-20T02:03:19.566Z,3.94
2023-03-20T02:06:08.754Z,3.97
2023-03-20T02:09:07.691Z,3.94
2023-03-20T02:11:41.266Z,3.89
2023-03-20T02:14:09.665Z,3.83
2023-03-20T02:16:44.014Z,3.74
2023-03-20T02:19:41.841Z,3.57
2023-03-20T02:22:39.921Z,3.38
2023-03-20T02:25:19.715Z,3.20
2023-03-20T02:28:01.403Z,3.08
2023-03-20T02:30:31.557Z,2.98
2023-03-20T02:33:04.380Z,2.89
2023-03-20T02:35:51.879Z,2.81
2023-03-20T02:38:39.652Z,2.75
2023-03-20T02:41:20.582Z,2.70
2023-03-20T02:44:15.530Z,2.66
2023-03-20T02:46:47.849Z,2.62
2023-03-20T02:49:31.100Z,2.60
2023-03-20T02:52:09.597Z,2.56
2023-03-20T02:54:39.311Z,2.49
2023-03-20T02:57:10.993Z,2.44
2023-03-20T02:59:45.803Z,2.36
2023-03-20T03:02:18.351Z,2.28
2023-03-20T03:04:55.359Z,2.20
2023-03-20T03:07:24.562Z,2.13
2023-03-20T03:09:54.203Z,2.08
2023-03-20T03:12:23.660Z,2.03
2023-03-20T03:14:56.604Z,2.01
2023-03-20T03:17:25.888Z,1.98
2023-03-20T03:19:56.024Z,1.94
2023-03-20T03:22:24.763Z,1.92
2023-03-20T03:24:54.421Z,1.90
2023-03-20T03:27:22.984Z,1.85
2023-03-20T03:29:54.284Z,1.80
2023-03-20T03:32:25.562Z,1.75
2023-03-20T03:34:53.878Z,1.69
2023-03-20T03:37:24.705Z,1.64
2023-03-20T03:40:05.447Z,1.56
2023-03-20T03:42:40.097Z,1.50
2023-03-20T03:45:13.127Z,1.48
2023-03-20T03:47:46.495Z,1.48
2023-03-20T03:50:17.409Z,1.46
2023-03-20T03:52:45.615Z,1.40
2023-03-20T03:55:15.489Z,1.35
2023-03-20T03:57:58.540Z,1.31
2023-03-20T04:00:27.456Z,1.28
2023-03-20T04:02:57.343Z,1.26
2023-03-20T04:05:29.749Z,1.25
2023-03-20T04:07:58.735Z,1.25
2023-03-20T04:10:27.262Z,1.25
2023-03-20T04:12:56.404Z,1.24
2023-03-20T04:15:24.718Z,1.23
2023-03-20T04:17:53.021Z,1.20
2023-03-20T04:20:21.982Z,1.18
2023-03-20T04:22:51.084Z,1.18
2023-03-20T04:25:23.765Z,1.19
2023-03-20T04:27:54.973Z,1.20
2023-03-20T04:30:58.974Z,1.20
2023-03-20T04:33:53.420Z,1.21
2023-03-20T04:37:01.619Z,1.27
2023-03-20T04:39:44.751Z,1.32
2023-03-20T04:42:13.600Z,1.36
2023-03-20T04:44:42.610Z,1.40
2023-03-20T04:47:11.034Z,1.41
2023-03-20T04:49:46.192Z,1.46
2023-03-20T04:52:16.046Z,1.49
2023-03-20T04:54:45.500Z,1.51
2023-03-20T04:57:14.312Z,1.55
2023-03-20T04:59:43.408Z,1.58
2023-03-20T05:02:15.334Z,1.62
2023-03-20T05:04:43.853Z,1.63
2023-03-20T05:07:12.690Z,1.67
2023-03-20T05:09:58.577Z,1.76
2023-03-20T05:12:28.209Z,1.88
2023-03-20T05:15:26.750Z,2.04
2023-03-20T05:18:19.292Z,2.19
2023-03-20T05:21:11.377Z,2.31
2023-03-20T05:23:59.999Z,2.37
2023-03-20T05:26:43.415Z,2.45
2023-03-20T05:29:18.535Z,2.50
2023-03-20T05:32:04.362Z,2.58
2023-03-20T05:34:54.513Z,2.69
2023-03-20T05:37:35.159Z,2.79
2023-03-20T05:40:14.062Z,2.88
2023-03-20T05:43:17.730Z,3.02
2023-03-20T05:46:13.166Z,3.09
2023-03-20T05:49:01.759Z,3.11
2023-03-20T05:51:53.201Z,3.20
2023-03-20T05:54:32.545Z,3.29
2023-03-20T05:57:30.006Z,3.40
2023-03-20T06:00:17.651Z,3.57
2023-03-20T06:02:54.718Z,3.76
2023-03-20T06:05:39.837Z,3.89
2023-03-20T06:08:08.028Z,3.99
2023-03-20T06:10:36.343Z,4.06
2023-03-20T06:13:05.564Z,4.14
2023-03-20T06:15:34.665Z,4.26
2023-03-20T06:18:11.295Z,4.40
2023-03-20T06:20:40.551Z,4.53
2023-03-20T06:23:09.779Z,4.71
2023-03-20T06:25:38.896Z,4.88
2023-03-20T06:28:07.636Z,5.00
2023-03-20T06:30:38.006Z,5.09
2023-03-20T06:33:16.880Z,5.15
2023-03-20T06:35:56.159Z,5.27
2023-03-20T06:38:24.634Z,5.30
2023-03-20T06:40:52.983Z,5.33
2023-03-20T06:43:23.823Z,5.41
2023-03-20T06:45:54.412Z,5.53
2023-03-20T06:48:28.175Z,5.66
2023-03-20T06:50:57.611Z,5.77
2023-03-20T06:53:29.380Z,5.90
2023-03-20T06:56:09.214Z,6.05
2023-03-20T06:58:41.561Z,6.17
2023-03-20T07:01:12.064Z,6.23
2023-03-20T07:03:41.450Z,6.31
2023-03-20T07:06:11.866Z,6.41
2023-03-20T07:08:40.815Z,6.46
2023-03-20T07:11:10.225Z,6.50
2023-03-20T07:13:39.017Z,6.55
2023-03-20T07:16:32.376Z,6.57
2023-03-20T07:19:01.485Z,6.59
2023-03-20T07:21:33.714Z,6.70
2023-03-20T07:24:02.143Z,6.82
2023-03-20T07:26:30.739Z,6.93
2023-03-20T07:28:59.825Z,7.00
2023-03-20T07:31:32.471Z,7.06
2023-03-20T07:34:25.042Z,7.15
2023-03-20T07:36:53.512Z,7.24
2023-03-20T07:39:22.703Z,7.33
2023-03-20T07:42:11.378Z,7.45
2023-03-20T07:44:45.671Z,7.55
2023-03-20T07:47:14.988Z,7.63
2023-03-20T07:49:43.296Z,7.68
2023-03-20T07:52:17.317Z,7.73
2023-03-20T07:54:46.266Z,7.76
2023-03-20T07:57:17.012Z,7.79
2023-03-20T07:59:46.981Z,7.85
2023-03-20T08:02:16.245Z,7.89
2023-03-20T08:04:49.342Z,7.96
2023-03-20T08:07:17.821Z,8.02
2023-03-20T08:09:46.515Z,8.10
2023-03-20T08:12:18.698Z,8.18
2023-03-20T08:14:47.507Z,8.29
2023-03-20T08:17:18.111Z,8.45
2023-03-20T08:19:48.372Z,8.60
2023-03-20T08:22:16.679Z,8.66
2023-03-20T08:24:44.959Z,8.70
2023-03-20T08:27:14.228Z,8.73
2023-03-20T08:29:42.728Z,8.75
2023-03-20T08:32:13.979Z,8.81
2023-03-20T08:34:42.243Z,8.95
2023-03-20T08:37:12.549Z,9.06
2023-03-20T08:39:41.333Z,9.21
2023-03-20T08:42:09.881Z,9.35
2023-03-20T08:44:39.320Z,9.48
2023-03-20T08:47:08.159Z,9.60
2023-03-20T08:49:37.187Z,9.72
2023-03-20T08:52:06.117Z,9.76
2023-03-20T08:54:34.433Z,9.79
2023-03-20T08:57:02.837Z,9.84
2023-03-20T08:59:31.560Z,9.91
2023-03-20T09:01:59.945Z,9.92
2023-03-20T09:04:29.870Z,9.97
2023-03-20T09:06:58.476Z,10.09
2023-03-20T09:09:29.816Z,10.17
2023-03-20T09:12:01.531Z,10.29
2023-03-20T09:14:30.814Z,10.42
2023-03-20T09:16:59.192Z,10.53
2023-03-20T09:19:27.432Z,10.58
2023-03-20T09:21:55.980Z,10.57
2023-03-20T09:24:24.404Z,10.56
2023-03-20T09:26:52.764Z,10.60
2023-03-20T09:29:21.112Z,10.65
2023-03-20T09:31:50.042Z,10.67
2023-03-20T09:34:18.713Z,10.69
2023-03-20T09:36:47.064Z,10.67
2023-03-20T09:39:15.451Z,10.65
2023-03-20T09:41:56.698Z,10.56
2023-03-20T09:44:49.934Z,10.49
2023-03-20T09:47:25.151Z,10.52
2023-03-20T09:50:22.382Z,10.51
2023-03-20T09:53:03.194Z,10.46
2023-03-20T09:55:38.507Z,10.45
2023-03-20T09:58:26.455Z,10.42
2023-03-20T10:00:56.298Z,10.44
2023-03-20T10:03:40.019Z,10.46
2023-03-20T10:06:12.346Z,10.47
2023-03-20T10:08:41.259Z,10.48
2023-03-20T10:11:16.547Z,10.53
2023-03-20T10:14:03.086Z,10.55
2023-03-20T10:16:40.174Z,10.57
2023-03-20T10:19:21.801Z,10.61
2023-03-20T10:22:12.688Z,10.64
2023-03-20T10:24:52.396Z,10.62
2023-03-20T10:27:21.258Z,10.59
2023-03-20T10:30:08.923Z,10.56
2023-03-20T10:32:39.053Z,10.55
2023-03-20T10:35:19.915Z,10.59
2023-03-20T10:37:54.408Z,10.63
2023-03-20T10:40:38.812Z,10.63
2023-03-20T10:43:24.812Z,10.63
2023-03-20T10:46:08.302Z,10.65
2023-03-20T10:48:41.868Z,10.70
2023-03-20T10:51:14.808Z,10.75
2023-03-20T10:53:50.454Z,10.72
2023-03-20T10:56:39.741Z,10.67
2023-03-20T10:59:10.778Z,10.66
2023-03-20T11:01:39.215Z,10.68
2023-03-20T11:04:07.582Z,10.67
2023-03-20T11:06:39.201Z,10.63
2023-03-20T11:09:10.496Z,10.64
2023-03-20T11:11:44.392Z,10.68
2023-03-20T11:14:20.238Z,10.73
2023-03-20T11:16:50.530Z,10.76
2023-03-20T11:19:19.843Z,10.77
2023-03-20T11:21:53.299Z,10.71
2023-03-20T11:24:24.535Z,10.65
2023-03-20T11:26:52.919Z,10.53
2023-03-20T11:29:27.020Z,10.38
2023-03-20T11:31:55.611Z,10.28
2023-03-20T11:34:26.732Z,10.29
2023-03-20T11:37:09.747Z,10.31
2023-03-20T11:39:40.333Z,10.30
2023-03-20T11:42:30.729Z,10.30
2023-03-20T11:44:59.645Z,10.29
2023-03-20T11:47:34.757Z,10.31
2023-03-20T11:50:04.982Z,10.38
2023-03-20T11:52:37.446Z,10.40
2023-03-20T11:55:08.262Z,10.38
2023-03-20T11:57:40.568Z,10.37
2023-03-20T12:00:18.294Z,10.42
2023-03-20T12:02:47.129Z,10.48
2023-03-20T12:05:33.571Z,10.54
2023-03-20T12:08:19.264Z,10.57
2023-03-20T12:10:59.284Z,10.66
2023-03-20T12:13:34.334Z,10.78
2023-03-20T12:16:12.152Z,10.87
2023-03-20T12:18:51.256Z,10.87
2023-03-20T12:21:23.126Z,10.76
2023-03-20T12:23:51.758Z,10.68
2023-03-20T12:26:34.966Z,10.64
2023-03-20T12:29:27.884Z,10.69
2023-03-20T12:32:19.659Z,10.85
2023-03-20T12:34:51.994Z,10.95
2023-03-20T12:37:20.513Z,11.07
2023-03-20T12:39:50.224Z,11.23
2023-03-20T12:42:24.656Z,11.34
2023-03-20T12:44:56.642Z,11.46
2023-03-20T12:47:43.566Z,11.59
2023-03-20T12:50:23.839Z,11.70
2023-03-20T12:53:01.706Z,11.78
2023-03-20T12:55:32.431Z,11.84
2023-03-20T12:58:19.362Z,11.85
2023-03-20T13:00:52.459Z,11.79
2023-03-20T13:03:28.640Z,11.79
2023-03-20T13:06:20.873Z,11.78
2023-03-20T13:08:55.208Z,11.77
2023-03-20T13:11:31.537Z,11.72
2023-03-20T13:14:14.943Z,11.64
2023-03-20T13:16:46.281Z,11.60
2023-03-20T13:19:53.110Z,11.62
2023-03-20T13:22:23.561Z,11.66
2023-03-20T13:24:55.463Z,11.68
2023-03-20T13:27:23.958Z,11.67
2023-03-20T13:29:57.518Z,11.66
2023-03-20T13:32:29.465Z,11.64
2023-03-20T13:35:26.157Z,11.60
2023-03-20T13:37:55.592Z,11.61
2023-03-20T13:40:25.060Z,11.61
2023-03-20T13:43:11.845Z,11.63
2023-03-20T13:45:41.569Z,11.63
2023-03-20T13:48:22.488Z,11.61
2023-03-20T13:50:51.483Z,11.58
2023-03-20T13:53:25.980Z,11.56
2023-03-20T13:56:06.245Z,11.53
2023-03-20T13:58:37.506Z,11.54
2023-03-20T14:01:15.579Z,11.57
2023-03-20T14:03:44.967Z,11.64
2023-03-20T14:06:39.598Z,11.67
2023-03-20T14:09:39.341Z,11.69
2023-03-20T14:12:08.437Z,11.71
2023-03-20T14:14:42.318Z,11.71
2023-03-20T14:17:15.672Z,11.72
2023-03-20T14:19:44.173Z,11.61
2023-03-20T14:22:16.486Z,11.39
2023-03-20T14:24:48.035Z,11.14
2023-03-20T14:27:29.880Z,10.86
2023-03-20T14:30:24.174Z,10.50
2023-03-20T14:32:53.374Z,10.21
2023-03-20T14:35:30.727Z,10.01
2023-03-20T14:38:14.948Z,9.85
2023-03-20T14:40:54.164Z,9.70
2023-03-20T14:43:41.712Z,9.54
2023-03-20T14:46:18.717Z,9.35
2023-03-20T14:48:48.783Z,9.17
2023-03-20T14:51:23.229Z,8.98
2023-03-20T14:53:57.048Z,8.82
2023-03-20T14:56:26.861Z,8.69
2023-03-20T14:59:00.414Z,8.56
2023-03-20T15:01:38.487Z,8.46
2023-03-20T15:04:08.680Z,8.40
2023-03-20T15:06:42.908Z,8.39
2023-03-20T15:09:12.033Z,8.39
2023-03-20T15:11:40.619Z,8.37
2023-03-20T15:14:13.345Z,8.35
2023-03-20T15:16:44.820Z,8.32
2023-03-20T15:19:17.773Z,8.28
2023-03-20T15:21:48.613Z,8.22
2023-03-20T15:24:21.184Z,8.18
2023-03-20T15:26:53.647Z,8.12
2023-03-20T15:29:21.750Z,8.03
2023-03-20T15:32:12.386Z,7.92
2023-03-20T15:34:42.967Z,7.79
2023-03-20T15:37:16.246Z,7.66
2023-03-20T15:39:50.554Z,7.56
2023-03-20T15:42:22.293Z,7.47
2023-03-20T15:44:52.349Z,7.39
2023-03-20T15:47:22.277Z,7.31
2023-03-20T15:49:50.982Z,7.23
2023-03-20T15:52:37.416Z,7.17
2023-03-20T15:55:07.038Z,7.10
2023-03-20T15:57:38.738Z,7.03
2023-03-20T16:00:08.175Z,6.98
2023-03-20T16:02:36.886Z,6.94
2023-03-20T16:05:05.389Z,6.89
2023-03-20T16:07:34.154Z,6.83
2023-03-20T16:10:02.893Z,6.79
2023-03-20T16:12:33.933Z,6.73
2023-03-20T16:15:05.128Z,6.67
2023-03-20T16:17:33.598Z,6.57
2023-03-20T16:20:02.063Z,6.44
2023-03-20T16:22:31.518Z,6.32
2023-03-20T16:25:00.600Z,6.23
2023-03-20T16:27:29.786Z,6.14
2023-03-20T16:29:58.339Z,6.08
2023-03-20T16:32:33.064Z,6.06
2023-03-20T16:35:03.482Z,6.03
2023-03-20T16:37:32.936Z,6.00
2023-03-20T16:40:19.296Z,5.99
2023-03-20T16:42:47.548Z,5.98
2023-03-20T16:45:25.432Z,5.96
2023-03-20T16:47:55.683Z,5.95
2023-03-20T16:50:24.552Z,5.94
2023-03-20T16:52:56.450Z,5.95
2023-03-20T16:55:27.818Z,5.93
2023-03-20T16:57:57.632Z,5.93
2023-03-20T17:00:52.488Z,5.91
2023-03-20T17:03:31.474Z,5.89
2023-03-20T17:06:00.421Z,5.87
2023-03-20T17:08:30.704Z,5.83
2023-03-20T17:11:00.089Z,5.79
2023-03-20T17:13:30.624Z,5.75
2023-03-20T17:16:04.053Z,5.72
2023-03-20T17:18:32.580Z,5.71
2023-03-20T17:21:00.886Z,5.70
2023-03-20T17:23:29.372Z,5.72
2023-03-20T17:25:57.523Z,5.72
2023-03-20T17:28:28.204Z,5.73
2023-03-20T17:30:56.700Z,5.76
2023-03-20T17:33:25.417Z,5.76
2023-03-20T17:35:54.307Z,5.76
2023-03-20T17:38:22.651Z,5.75
2023-03-20T17:40:51.451Z,5.74
2023-03-20T17:43:20.029Z,5.72
2023-03-20T17:45:48.450Z,5.70
2023-03-20T17:48:21.036Z,5.69
2023-03-20T17:50:50.850Z,5.66
2023-03-20T17:53:20.650Z,5.63
2023-03-20T17:55:49.193Z,5.61
2023-03-20T17:58:18.365Z,5.57
2023-03-20T18:00:47.082Z,5.53
2023-03-20T18:03:18.247Z,5.51
2023-03-20T18:05:46.970Z,5.52
2023-03-20T18:08:16.556Z,5.52
2023-03-20T18:10:48.211Z,5.53
2023-03-20T18:13:18.859Z,5.53
2023-03-20T18:15:47.796Z,5.56
2023-03-20T18:18:16.395Z,5.60
2023-03-20T18:21:04.795Z,5.64
2023-03-20T18:23:34.002Z,5.71
2023-03-20T18:26:04.497Z,5.75
2023-03-20T18:28:34.647Z,5.82
2023-03-20T18:31:02.915Z,5.87
2023-03-20T18:33:32.142Z,5.91
2023-03-20T18:36:01.051Z,5.96
2023-03-20T18:38:30.874Z,5.98
2023-03-20T18:40:59.760Z,6.00
2023-03-20T18:43:28.657Z,6.01
2023-03-20T18:45:58.949Z,5.99
2023-03-20T18:48:47.314Z,5.95
2023-03-20T18:51:15.877Z,5.88
2023-03-20T18:53:44.363Z,5.82
2023-03-20T18:56:24.329Z,5.76
2023-03-20T18:58:53.196Z,5.71
2023-03-20T19:01:42.747Z,5.70
2023-03-20T19:04:14.053Z,5.69
2023-03-20T19:06:44.180Z,5.70
2023-03-20T19:09:12.536Z,5.70
2023-03-20T19:11:42.705Z,5.73
2023-03-20T19:14:11.376Z,5.76
2023-03-20T19:16:43.106Z,5.78
2023-03-20T19:19:11.854Z,5.80
2023-03-20T19:21:40.444Z,5.82
2023-03-20T19:24:08.818Z,5.84
2023-03-20T19:26:37.681Z,5.85
2023-03-20T19:29:10.771Z,5.85
2023-03-20T19:31:40.006Z,5.88
2023-03-20T19:34:24.085Z,5.89
2023-03-20T19:37:06.412Z,5.88
2023-03-20T19:39:36.229Z,5.86
2023-03-20T19:42:32.296Z,5.80
2023-03-20T19:45:14.207Z,5.73
2023-03-20T19:47:42.753Z,5.69
2023-03-20T19:50:30.510Z,5.64
2023-03-20T19:52:59.072Z,5.60
2023-03-20T19:55:27.664Z,5.58
2023-03-20T19:57:59.028Z,5.57
2023-03-20T20:00:57.441Z,5.59
2023-03-20T20:03:22.181Z,5.61
2023-03-20T20:05:50.733Z,5.63
2023-03-20T20:08:30.840Z,5.65
2023-03-20T20:11:12.059Z,5.69
2023-03-20T20:14:01.863Z,5.73
2023-03-20T20:16:31.537Z,5.78
2023-03-20T20:19:02.805Z,5.81
2023-03-20T20:24:19.685Z,5.88
2023-03-20T20:27:15.087Z,5.89
2023-03-20T20:29:49.441Z,5.89
2023-03-20T20:32:23.586Z,5.86
2023-03-20T20:40:31.210Z,5.66
2023-03-20T20:43:02.312Z,5.61
2023-03-20T20:45:51.057Z,5.59
2023-03-20T20:48:20.025Z,5.58
2023-03-20T20:50:49.518Z,5.56
2023-03-20T20:53:19.442Z,5.54
2023-03-20T20:55:48.229Z,5.54
2023-03-20T20:58:18.467Z,5.55
2023-03-20T21:00:54.675Z,5.57
2023-03-20T21:03:24.425Z,5.59
2023-03-20T21:05:53.200Z,5.60
2023-03-20T21:08:22.790Z,5.60
2023-03-20T21:10:55.530Z,5.57
2023-03-20T21:13:24.312Z,5.54
2023-03-20T21:15:59.379Z,5.53
2023-03-20T21:18:31.616Z,5.50
2023-03-20T21:21:07.074Z,5.47
2023-03-20T21:23:36.285Z,5.46
2023-03-20T21:26:06.306Z,5.43
2023-03-20T21:28:37.353Z,5.41
2023-03-20T21:31:23.870Z,5.38
2023-03-20T21:33:53.303Z,5.34
2023-03-20T21:36:21.632Z,5.32
2023-03-20T21:41:38.294Z,5.24
2023-03-20T21:44:07.301Z,5.21
2023-03-20T21:50:17.612Z,5.18
2023-03-20T21:52:59.892Z,5.17
2023-03-20T21:55:52.099Z,5.15
2023-03-20T22:04:10.571Z,5.06
2023-03-20T22:12:48.036Z,5.05
2023-03-20T22:18:16.921Z,5.12
2023-03-20T22:32:47.768Z,5.30
2023-03-20T22:35:37.996Z,5.33
2023-03-20T22:41:25.048Z,5.36
2023-03-20T22:44:24.797Z,5.38
2023-03-20T22:46:19.544Z,5.40
2023-03-20T22:48:51.512Z,5.40
2023-03-20T22:51:22.691Z,5.40
2023-03-20T22:54:01.466Z,5.42
2023-03-20T22:56:31.233Z,5.45
2023-03-20T22:58:59.745Z,5.46
2023-03-20T23:01:29.107Z,5.47
2023-03-20T23:03:57.625Z,5.46
2023-03-20T23:06:26.526Z,5.46
2023-03-20T23:09:03.114Z,5.47
2023-03-20T23:11:33.744Z,5.50
2023-03-20T23:14:20.545Z,5.51
2023-03-20T23:16:51.049Z,5.51
2023-03-20T23:19:19.673Z,5.51
2023-03-20T23:21:48.709Z,5.51
2023-03-20T23:24:17.152Z,5.48
2023-03-20T23:26:45.583Z,5.47
2023-03-20T23:29:13.997Z,5.46
2023-03-20T23:31:42.346Z,5.44
2023-03-20T23:34:10.834Z,5.42
2023-03-20T23:36:39.911Z,5.41
2023-03-20T23:39:09.027Z,5.42
2023-03-20T23:44:26.598Z,5.41
2023-03-20T23:46:57.766Z,5.39
2023-03-20T23:49:27.237Z,5.34
2023-03-20T23:51:55.476Z,5.31
2023-03-20T23:54:23.735Z,5.29
2023-03-20T23:56:51.953Z,5.26
2023-03-20T23:59:23.051Z,5.21
